• Join FlightAware (Why Join?)
  • Login
  • US Flag 
02:47AM EST


 

Airport Tracker/Info


-or-


 

Live Flight TrackerFlight Track Log ✈ N833L ✈ 20-Jun-2013 ✈ KEVV - KORL

Flight Track Log - Related Links

Times and Time Zones

All times are in EDT time to prevent confusion due to time zone crossing. See the N833L flight status page for this flight to view local times or setup timezone preferences in your user account.

Time Position Orientation Groundspeed Altitude Reporting Facility
EDT Latitude Longitude Course Direction KTS MPH feet Rate Location/Type
06:12AM 37.9578 -87.5047 156° South 102 117 2,400  Level Indianapolis Center
06:13AM 37.9306 -87.4900 157° South 106 122 2,900 420 Climbing Indianapolis Center
06:14AM 37.9000 -87.4756 160° South 110 127 3,300 420 Climbing Indianapolis Center
06:15AM 37.8678 -87.4594 158° South 117 135 3,800 540 Climbing Indianapolis Center
06:16AM 37.8347 -87.4442 160° South 123 142 4,400 540 Climbing Indianapolis Center
06:17AM 37.8050 -87.4269 155° Southeast 120 138 5,000 540 Climbing Indianapolis Center
06:18AM 37.8269 -87.3739 156° South  Level Estimated
06:18AM 37.7758 -87.4136 160° South 114 131 5,600  Level Indianapolis Center
06:19AM 37.7472 -87.3992 158° South 111 128 6,200 540 Climbing Indianapolis Center
06:20AM 37.7178 -87.3850 159° South 113 130 6,800 360 Climbing Indianapolis Center
06:21AM 37.6853 -87.3700 160° South 122 140 7,000 60 Climbing Indianapolis Center
06:22AM 37.6475 -87.3511 158° South 139 160 7,000  Level Indianapolis Center
06:23AM 37.6114 -87.3306 156° South 143 165 7,000  Level Indianapolis Center
06:24AM 37.5753 -87.3133 159° South 140 161 7,000  Level Indianapolis Center
06:25AM 37.5394 -87.2958 159° South 138 159 7,000  Level Indianapolis Center
06:26AM 37.5022 -87.2783 160° South 142 163 7,000  Level Indianapolis Center
06:28AM 37.4664 -87.2608 159° South 139 160 7,000  Level Indianapolis Center
06:29AM 37.4306 -87.2428 158° South 139 160 7,000  Level Indianapolis Center
06:30AM 37.3953 -87.2267 160° South 136 157 7,000  Level Indianapolis Center
06:31AM 37.3592 -87.2067 156° South 139 160 7,000  Level Indianapolis Center
06:32AM 37.3239 -87.1900 159° South 136 157 7,000  Level Indianapolis Center
06:33AM 37.2892 -87.1733 159° South 135 155 7,000  Level Indianapolis Center
06:34AM 37.2522 -87.1547 158° South 135 155 7,000  Level Indianapolis Center
06:35AM 37.2164 -87.1392 161° South 135 155 7,000  Level Indianapolis Center
06:36AM 37.1817 -87.1211 157° South 133 153 7,000  Level Indianapolis Center
06:37AM 37.1461 -87.1033 158° South 135 155 7,000  Level Indianapolis Center
06:38AM 37.1108 -87.0861 159° South 135 155 7,000  Level Indianapolis Center
06:39AM 37.0750 -87.0692 159° South 137 158 7,000  Level Indianapolis Center
06:40AM 37.0397 -87.0511 158° South 136 157 7,000  Level Indianapolis Center
06:41AM 37.0036 -87.0336 159° South 139 160 7,000  Level Indianapolis Center
06:42AM 36.9689 -87.0175 160° South 134 154 7,000 -60 Level Indianapolis Center
06:43AM 36.9239 -86.9989 162° South 134 154 6,900 -60 Descending Memphis Center
06:44AM 36.8858 -86.9797 158° South 134 154 6,900  Level Memphis Center
06:46AM 36.8167 -86.9333 152° Southeast 137 158 7,000  Climbing Nashville TRACON
06:47AM 36.7667 -86.9167 165° South 138 159 7,000  Level Nashville TRACON
06:48AM 36.7333 -86.9000 158° South 140 161 7,000  Level Nashville TRACON
06:49AM 36.7000 -86.8833 158° South 139 160 7,000  Level Nashville TRACON
06:50AM 36.6667 -86.8667 158° South 139 160 7,000  Level Nashville TRACON
06:51AM 36.6167 -86.8500 165° South 138 159 7,000  Level Nashville TRACON
06:52AM 36.5833 -86.8333 158° South 138 159 7,000  Level Nashville TRACON
06:53AM 36.5500 -86.8167 158° South 141 162 7,000  Level Nashville TRACON
06:54AM 36.5167 -86.8000 158° South 140 161 7,000  Level Nashville TRACON
06:55AM 36.4833 -86.7833 158° South 138 159 7,000  Level Nashville TRACON
06:56AM 36.4500 -86.7667 158° South 140 161 7,000  Level Nashville TRACON
06:57AM 36.4167 -86.7500 158° South 141 162 7,000  Level Nashville TRACON
06:58AM 36.3667 -86.7333 165° South 141 162 7,000  Level Nashville TRACON
06:59AM 36.3333 -86.7167 158° South 140 161 7,000  Level Nashville TRACON
07:00AM 36.3000 -86.7000 158° South 139 160 7,000  Level Nashville TRACON
07:01AM 36.2667 -86.6667 141° Southeast 139 160 7,000  Level Nashville TRACON
07:02AM 36.2333 -86.6667 180° South 140 161 7,000  Level Nashville TRACON
07:03AM 36.2000 -86.6500 158° South 138 159 7,000  Level Nashville TRACON
07:04AM 36.1667 -86.6333 158° South 137 158 7,000  Level Nashville TRACON
07:05AM 36.1167 -86.6167 165° South 136 157 7,000  Level Nashville TRACON
07:06AM 36.0833 -86.5833 141° Southeast 137 158 7,000  Level Nashville TRACON
07:07AM 36.0500 -86.5667 158° South 137 158 7,000  Level Nashville TRACON
07:08AM 36.0167 -86.5500 158° South 137 158 7,000  Level Nashville TRACON
07:09AM 35.9833 -86.5333 158° South 138 159 7,000  Level Nashville TRACON
07:10AM 35.9500 -86.5167 158° South 138 159 7,000  Level Nashville TRACON
07:11AM 35.9167 -86.5000 158° South 137 158 7,000  Level Nashville TRACON
07:12AM 35.8667 -86.4833 165° South 138 159 7,000  Level Nashville TRACON
07:13AM 35.8333 -86.4667 158° South 139 160 7,000  Level Nashville TRACON
07:14AM 35.8031 -86.4564 165° South 152 175 7,000  Level Memphis Center
07:15AM 35.7631 -86.4378 159° South 147 169 7,000  Level Memphis Center
07:16AM 35.7269 -86.4214 160° South 142 163 7,000  Level Memphis Center
07:17AM 35.6911 -86.4053 160° South 142 163 7,000  Level Memphis Center
07:18AM 35.6550 -86.3867 157° South 142 163 7,000  Level Memphis Center
07:19AM 35.6189 -86.3706 160° South 137 158 7,000  Level Memphis Center
07:20AM 35.5811 -86.3544 161° South 137 158 7,000  Level Memphis Center
07:21AM 35.5469 -86.3356 156° South 137 158 7,000  Level Memphis Center
07:22AM 35.5111 -86.3194 160° South 132 152 7,000  Level Memphis Center
07:23AM 35.4769 -86.3008 156° South 132 152 7,000  Level Memphis Center
07:24AM 35.4392 -86.2875 164° South 137 158 7,000  Level Memphis Center
07:25AM 35.4053 -86.2711 158° South 137 158 7,000  Level Memphis Center
07:26AM 35.3692 -86.2550 160° South 137 158 7,000  Level Memphis Center
07:27AM 35.3331 -86.2392 160° South 137 158 7,000  Level Memphis Center
07:28AM 35.2992 -86.2178 153° Southeast 137 158 7,000  Level Memphis Center
07:29AM 35.2589 -86.2019 162° South 142 163 7,000  Level Memphis Center
07:30AM 35.2231 -86.1861 160° South 142 163 7,000  Level Memphis Center
07:31AM 35.1869 -86.1700 160° South 147 169 7,000  Level Memphis Center
07:32AM 35.1467 -86.1517 160° South 147 169 7,000  Level Memphis Center
07:33AM 35.1106 -86.1358 160° South 147 169 7,000  Level Memphis Center
07:34AM 35.0767 -86.1172 156° South 147 169 7,000  Level Memphis Center
07:35AM 35.0386 -86.1014 161° South 147 169 7,000  Level Memphis Center
07:36AM 35.0003 -86.0831 159° South 147 169 7,000  Level Memphis Center
07:37AM 34.9644 -86.0672 160° South 147 169 7,000  Level Memphis Center
07:38AM 34.9300 -86.0503 158° South 149 171 7,000  Level Atlanta Center
07:39AM 34.8906 -86.0342 161° South 138 159 7,000  Level Atlanta Center
07:40AM 34.8531 -86.0181 161° South 138 159 7,000  Level Atlanta Center
07:41AM 34.8181 -86.0022 160° South 138 159 7,000  Level Atlanta Center
07:42AM 34.7786 -85.9808 156° South 143 165 7,000  Level Atlanta Center
07:43AM 34.7414 -85.9650 161° South 148 170 7,000  Level Atlanta Center
07:44AM 34.7061 -85.9514 162° South 148 170 7,000  Level Atlanta Center
07:45AM 34.6708 -85.9331 157° South 148 170 7,000  Level Atlanta Center
07:46AM 34.6314 -85.9144 159° South 148 170 7,000  Level Atlanta Center
07:47AM 34.5942 -85.8986 161° South 148 170 7,000  Level Atlanta Center
07:48AM 34.5589 -85.8825 159° South 148 170 7,000  Level Atlanta Center
07:49AM 34.5217 -85.8642 158° South 148 170 7,000  Level Atlanta Center
07:50AM 34.4844 -85.8481 160° South 148 170 7,000  Level Atlanta Center
07:51AM 34.4492 -85.8322 160° South 148 170 7,000  Level Atlanta Center
07:52AM 34.4117 -85.8164 161° South 148 170 7,000  Level Atlanta Center
07:53AM 34.3764 -85.8006 160° South 148 170 7,000  Level Atlanta Center
07:54AM 34.3392 -85.7822 158° South 148 170 7,000  Level Atlanta Center
07:55AM 34.3061 -85.7664 158° South 143 165 7,000  Level Atlanta Center
07:56AM 34.2686 -85.7506 161° South 142 163 7,000  Level Atlanta Center
07:57AM 34.2314 -85.7347 161° South 142 163 7,000  Level Atlanta Center
07:58AM 34.1961 -85.7189 160° South 140 161 7,000  Level Atlanta Center
07:59AM 34.1608 -85.7033 160° South 133 153 7,000  Level Atlanta Center
08:00AM 34.1256 -85.6850 157° South 133 153 7,000  Level Atlanta Center
08:01AM 34.0903 -85.6692 160° South 138 159 7,000  Level Atlanta Center
08:02AM 34.0467 -85.6533 163° South 143 165 7,000  Level Atlanta Center
08:03AM 34.0114 -85.6353 157° South 148 170 7,000  Level Atlanta Center
08:04AM 33.9719 -85.6194 162° South 147 169 7,000  Level Atlanta Center
08:05AM 33.9408 -85.6039 157° South 146 168 7,000  Level Atlanta Center
08:06AM 33.9036 -85.5881 161° South 141 162 7,000  Level Atlanta Center
08:07AM 33.8683 -85.5725 160° South 146 168 7,000  Level Atlanta Center
08:08AM 33.8331 -85.5569 160° South 140 161 7,000  Level Atlanta Center
08:09AM 33.7975 -85.5411 160° South 146 168 7,000  Level Atlanta Center
08:10AM 33.7622 -85.5256 160° South 146 168 7,000  Level Atlanta Center
08:11AM 33.7269 -85.5075 157° South 146 168 7,000  Level Atlanta Center
08:12AM 33.6897 -85.4919 161° South 146 168 7,000  Level Atlanta Center
08:13AM 33.6564 -85.4789 162° South 146 168 7,000  Level Atlanta Center
08:14AM 33.6233 -85.4633 159° South 141 162 7,000  Level Atlanta Center
08:15AM 33.5881 -85.4478 160° South 147 169 7,000  Level Atlanta Center
08:16AM 33.5506 -85.4322 161° South 147 169 7,000  Level Atlanta Center
08:17AM 33.5153 -85.4142 157° South 142 163 7,000  Level Atlanta Center
08:18AM 33.4778 -85.3986 161° South 147 169 7,000  Level Atlanta Center
08:19AM 33.4425 -85.3806 157° South 147 169 7,000  Level Atlanta Center
08:20AM 33.4011 -85.3625 160° South 142 163 7,000  Level Atlanta Center
08:21AM 33.3636 -85.3497 164° South 142 163 7,000  Level Atlanta Center
08:22AM 33.3261 -85.3292 155° Southeast 147 169 7,000  Level Atlanta Center
08:23AM 33.2889 -85.3136 161° South 148 170 7,000  Level Atlanta Center
08:24AM 33.2514 -85.3008 164° South 148 170 7,000  Level Atlanta Center
08:25AM 33.2139 -85.2828 158° South 148 170 7,000  Level Atlanta Center
08:26AM 33.1767 -85.2647 158° South 148 170 7,000  Level Atlanta Center
08:27AM 33.1414 -85.2494 160° South 144 166 7,000  Level Atlanta Center
08:28AM 33.1039 -85.2317 158° South 153 176 7,000  Level Atlanta Center
08:29AM 33.0792 -85.1992 132° Southeast 133 153 7,000  Level Atlanta Center
08:30AM 33.0544 -85.1689 134° Southeast 133 153 7,000  Level Atlanta Center
08:32AM 33.0000 -85.1000 133° Southeast 139 160 7,000  Level Atlanta TRACON
08:33AM 32.9833 -85.0667 121° Southeast 137 158 7,000  Level Atlanta TRACON
08:34AM 32.9500 -85.0500 157° South 138 159 7,000  Level Atlanta TRACON
08:35AM 32.9167 -85.0167 140° Southeast 138 159 7,000  Level Atlanta TRACON
08:36AM 32.9000 -84.9833 121° Southeast 136 157 7,000  Level Atlanta TRACON
08:37AM 32.8667 -84.9500 140° Southeast 137 158 7,000  Level Atlanta TRACON
08:38AM 32.8500 -84.9167 121° Southeast 139 160 7,000  Level Atlanta TRACON
08:39AM 32.8167 -84.8833 140° Southeast 139 160 7,000  Level Atlanta TRACON
08:40AM 32.7833 -84.8500 140° Southeast 141 162 7,000  Level Atlanta TRACON
08:41AM 32.7667 -84.8167 121° Southeast 138 159 7,000  Level Atlanta TRACON
08:42AM 32.7333 -84.7833 140° Southeast 138 159 7,000  Level Atlanta TRACON
08:43AM 32.7000 -84.7500 140° Southeast 137 158 7,000  Level Atlanta TRACON
08:44AM 32.6833 -84.7167 121° Southeast 137 158 7,000  Level Atlanta TRACON
08:45AM 32.6500 -84.6833 140° Southeast 137 158 7,000  Level Atlanta TRACON
08:46AM 32.6333 -84.6500 121° Southeast 138 159 7,000 -60 Level Atlanta TRACON
08:47AM 32.6000 -84.6333 157° South 139 160 6,900 -60 Descending Atlanta TRACON
08:48AM 32.5667 -84.6000 140° Southeast 144 166 6,900  Level Atlanta TRACON
08:49AM 32.5333 -84.6000 180° South 143 165 6,900  Level Atlanta TRACON
08:50AM 32.4833 -84.5833 164° South 144 166 7,000  Climbing Atlanta TRACON
08:51AM 32.4500 -84.5667 157° South 144 166 6,900 -60 Descending Atlanta TRACON
08:54AM 32.3314 -84.5325 166° South 142 163 6,900  Level Jacksonville Center
08:55AM 32.2961 -84.5172 160° South 142 163 6,900  Level Jacksonville Center
08:56AM 32.2586 -84.5042 164° South 143 165 6,900 -60 Level Jacksonville Center
08:57AM 32.2192 -84.4936 167° South 143 165 6,800  Descending Jacksonville Center
08:58AM 32.1836 -84.4783 160° South 143 165 6,900 60 Climbing Jacksonville Center
08:59AM 32.1442 -84.4678 167° South 143 165 7,000  Climbing Jacksonville Center
09:00AM 32.1069 -84.4525 161° South 143 165 7,000  Level Jacksonville Center
09:01AM 32.0672 -84.4394 164° South 143 165 7,000  Level Jacksonville Center
09:02AM 32.0319 -84.4267 163° South 143 165 7,000  Level Jacksonville Center
09:03AM 31.9925 -84.4114 162° South 143 165 7,000  Level Jacksonville Center
09:04AM 31.9550 -84.3983 164° South 143 165 7,000  Level Jacksonville Center
09:05AM 31.9156 -84.3856 165° South 143 165 7,000  Level Jacksonville Center
09:06AM 31.8781 -84.3703 161° South 143 165 7,000  Level Jacksonville Center
09:07AM 31.8408 -84.3600 167° South 143 165 7,000  Level Jacksonville Center
09:08AM 31.8011 -84.3447 162° South 143 165 7,000  Level Jacksonville Center
09:09AM 31.7639 -84.3317 163° South 143 165 7,000  Level Jacksonville Center
09:10AM 31.7264 -84.3189 164° South 143 165 7,000  Level Jacksonville Center
09:11AM 31.6869 -84.3039 162° South 143 165 7,000  Level Jacksonville Center
09:12AM 31.6494 -84.2911 164° South 143 165 7,000  Level Jacksonville Center
09:13AM 31.6119 -84.2733 158° South 143 165 7,000  Level Jacksonville Center
09:14AM 31.5747 -84.2581 161° South 143 165 7,000  Level Jacksonville Center
09:15AM 31.5372 -84.2406 158° South 143 165 7,000  Level Jacksonville Center
09:16AM 31.4997 -84.2231 158° South 148 170 7,000  Level Jacksonville Center
09:17AM 31.4644 -84.2053 157° South 148 170 7,000  Level Jacksonville Center
09:18AM 31.4269 -84.1878 158° South 148 170 7,000  Level Jacksonville Center
09:19AM 31.3897 -84.1728 161° South 148 170 7,000  Level Jacksonville Center
09:20AM 31.3544 -84.1528 154° Southeast 148 170 7,000  Level Jacksonville Center
09:21AM 31.3211 -84.1403 162° South 141 162 7,000  Level Jacksonville Center
09:22AM 31.2817 -84.1203 157° South 148 170 7,000  Level Jacksonville Center
09:23AM 31.2400 -84.1050 163° South 142 163 7,000  Level Jacksonville Center
09:24AM 31.2067 -84.0853 153° Southeast 148 170 7,000  Level Jacksonville Center
09:25AM 31.1714 -84.0703 160° South 148 170 7,000  Level Jacksonville Center
09:26AM 31.1361 -84.0528 157° South 148 170 7,000  Level Jacksonville Center
09:27AM 31.0986 -84.0353 158° South 148 170 7,000  Level Jacksonville Center
09:28AM 31.0633 -84.0178 157° South 148 170 7,000  Level Jacksonville Center
09:29AM 31.0239 -84.0028 162° South 148 170 7,000  Level Jacksonville Center
09:30AM 30.9883 -83.9856 157° South 148 170 7,000  Level Jacksonville Center
09:31AM 30.9511 -83.9681 158° South 141 162 7,000  Level Jacksonville Center
09:32AM 30.9156 -83.9508 157° South 141 162 7,000  Level Jacksonville Center
09:33AM 30.8783 -83.9333 158° South 141 162 7,000  Level Jacksonville Center
09:34AM 30.8428 -83.9161 157° South 141 162 7,000  Level Jacksonville Center
09:35AM 30.8033 -83.9011 162° South 146 168 7,000 -120 Level Jacksonville Center
09:36AM 30.7658 -83.8814 156° South 146 168 6,800 -240 Descending Jacksonville Center
09:37AM 30.7242 -83.8617 158° South 146 168 6,600 -300 Descending Jacksonville Center
09:38AM 30.6847 -83.8444 159° South 151 174 6,300 -300 Descending Jacksonville Center
09:39AM 30.6453 -83.8247 157° South 151 174 6,100 -300 Descending Jacksonville Center
09:40AM 30.6036 -83.8072 160° South 151 174 5,800 -300 Descending Jacksonville Center
09:41AM 30.5642 -83.7875 157° South 151 174 5,600 -300 Descending Jacksonville Center
09:42AM 30.5203 -83.7656 157° South 151 174 5,300 -240 Descending Jacksonville Center
09:44AM 30.4747 -83.7291 145° Southeast  Level FlightAware Approximate
09:44AM 30.4436 -83.7022 145° Southeast 144 166 5,000  Level Jacksonville Center
09:45AM 30.4144 -83.6803 147° Southeast 150 173 5,000  Level Jacksonville Center
09:46AM 30.3811 -83.6536 145° Southeast 150 173 5,000  Level Jacksonville Center
09:47AM 30.3500 -83.6292 146° Southeast 150 173 5,000  Level Jacksonville Center
09:48AM 30.3167 -83.6047 148° Southeast 145 167 5,000  Level Jacksonville Center
09:49AM 30.2875 -83.5806 144° Southeast 145 167 5,000  Level Jacksonville Center
09:50AM 30.2564 -83.5564 146° Southeast 145 167 5,000  Level Jacksonville Center
09:51AM 30.2231 -83.5297 145° Southeast 145 167 5,000  Level Jacksonville Center
09:52AM 30.1919 -83.5078 149° Southeast 145 167 5,000  Level Jacksonville Center
09:53AM 30.1586 -83.4836 148° Southeast 145 167 5,000  Level Jacksonville Center
09:54AM 30.1275 -83.4594 146° Southeast 145 167 5,000  Level Jacksonville Center
09:55AM 30.0964 -83.4328 143° Southeast 140 161 5,000  Level Jacksonville Center
09:56AM 30.0650 -83.4111 149° Southeast 140 161 5,000  Level Jacksonville Center
09:57AM 30.0317 -83.3869 148° Southeast 140 161 5,000  Level Jacksonville Center
09:58AM 30.0006 -83.3603 143° Southeast 140 161 5,000  Level Jacksonville Center
09:59AM 29.9672 -83.3361 148° Southeast 140 161 5,000  Level Jacksonville Center
10:00AM 29.9358 -83.3119 146° Southeast 140 161 5,000  Level Jacksonville Center
10:01AM 29.9047 -83.2881 146° Southeast 140 161 5,000  Level Jacksonville Center
10:02AM 29.8736 -83.2614 143° Southeast 140 161 5,000  Level Jacksonville Center
10:03AM 29.8400 -83.2375 148° Southeast 140 161 5,000  Level Jacksonville Center
10:04AM 29.8067 -83.2108 145° Southeast 140 161 5,000  Level Jacksonville Center
10:05AM 29.7756 -83.1869 146° Southeast 140 161 5,000 -60 Level Jacksonville Center
10:06AM 29.7442 -83.1628 146° Southeast 140 161 4,900 -60 Descending Jacksonville Center
10:07AM 29.7131 -83.1414 149° Southeast 140 161 4,900  Level Jacksonville Center
10:08AM 29.6817 -83.1150 144° Southeast 140 161 4,900  Level Jacksonville Center
10:09AM 29.6506 -83.0886 144° Southeast 140 161 4,900  Level Jacksonville Center
10:10AM 29.6172 -83.0644 148° Southeast 140 161 4,900  Level Jacksonville Center
10:11AM 29.5983 -83.0525 151° Southeast 137 158 4,900  Level Jacksonville Center
10:11AM 29.5858 -83.0406 140° Southeast 140 161 4,900  Level Jacksonville Center
10:12AM 29.5586 -83.0072 133° Southeast 140 161 4,900  Level Jacksonville Center
10:13AM 29.5378 -82.9689 122° Southeast 140 161 4,900  Level Jacksonville Center
10:14AM 29.5150 -82.9308 125° Southeast 145 167 4,900  Level Jacksonville Center
10:15AM 29.4919 -82.8925 125° Southeast 145 167 4,900  Level Jacksonville Center
10:16AM 29.4711 -82.8569 124° Southeast 145 167 4,900  Level Jacksonville Center
10:17AM 29.4503 -82.8211 124° Southeast 145 167 4,900  Level Jacksonville Center
10:18AM 29.4272 -82.7828 125° Southeast 145 167 4,900  Level Jacksonville Center
10:19AM 29.4042 -82.7447 125° Southeast 145 167 4,900  Level Jacksonville Center
10:20AM 29.3833 -82.7092 124° Southeast 145 167 4,900  Level Jacksonville Center
10:22AM 29.3539 -82.6639 127° Southeast 140 161 4,900  Level Jacksonville Center
10:23AM 29.3308 -82.6258 125° Southeast 140 161 4,900  Level Jacksonville Center
10:24AM 29.3058 -82.5853 125° Southeast 140 161 4,900  Level Jacksonville Center
10:25AM 29.2828 -82.5475 125° Southeast 141 162 4,900  Level Jacksonville Center
10:26AM 29.2617 -82.5069 121° Southeast 142 163 4,900  Level Jacksonville Center
10:27AM 29.2386 -82.4714 127° Southeast 140 161 4,900  Level Jacksonville Center
10:28AM 29.2178 -82.4333 122° Southeast 140 161 4,900  Level Jacksonville Center
10:29AM 29.1947 -82.4003 129° Southeast 140 161 4,900  Level Jacksonville Center
10:30AM 29.1736 -82.3647 124° Southeast 141 162 4,900  Level Jacksonville Center
10:31AM 29.1506 -82.3292 127° Southeast 140 161 4,900  Level Jacksonville Center
10:32AM 29.1294 -82.2911 122° Southeast 141 162 4,900  Level Jacksonville Center
10:33AM 29.1064 -82.2508 123° Southeast 136 157 4,900  Level Jacksonville Center
10:34AM 29.0853 -82.2153 124° Southeast 137 158 4,900  Level Jacksonville Center
10:35AM 29.0619 -82.1800 127° Southeast 138 159 4,900  Level Jacksonville Center
10:36AM 29.0431 -82.1467 123° Southeast 139 160 4,900  Level Jacksonville Center
10:37AM 29.0178 -82.1114 129° Southeast 139 160 4,900  Level Jacksonville Center
10:38AM 28.9947 -82.0711 123° Southeast 140 161 4,900  Level Jacksonville Center
10:40AM 28.9500 -82.0000 126° Southeast 138 159 5,000  Climbing Orlando TRACON
10:41AM 28.9333 -81.9667 120° Southeast 140 161 5,000  Level Orlando TRACON
10:42AM 28.9000 -81.9167 127° Southeast 140 161 5,000  Level Orlando TRACON
10:43AM 28.8833 -81.8833 120° Southeast 140 161 5,000  Level Orlando TRACON
10:44AM 28.8667 -81.8500 120° Southeast 141 162 5,000  Level Orlando TRACON
10:45AM 28.8333 -81.8167 139° Southeast 141 162 5,000 -240 Level Orlando TRACON
10:46AM 28.8167 -81.7833 120° Southeast 145 167 4,600 -480 Descending Orlando TRACON
10:47AM 28.7833 -81.7500 139° Southeast 159 183 4,200 -420 Descending Orlando TRACON
10:48AM 28.7500 -81.7167 139° Southeast 154 177 3,900 -120 Descending Orlando TRACON
10:49AM 28.7333 -81.6833 120° Southeast 133 153 4,000  Climbing Orlando TRACON
10:50AM 28.7000 -81.6667 156° South 124 143 4,000 -60 Level Orlando TRACON
10:51AM 28.6833 -81.6333 120° Southeast 127 146 3,900 -300 Descending Orlando TRACON
10:52AM 28.6500 -81.6000 139° Southeast 140 161 3,500 -480 Descending Orlando TRACON
10:53AM 28.6167 -81.5667 139° Southeast 155 178 3,000 -540 Descending Orlando TRACON
10:54AM 28.6000 -81.5333 120° Southeast 149 171 2,500 -540 Descending Orlando TRACON
10:55AM 28.5667 -81.5000 139° Southeast 139 160 2,000 -240 Descending Orlando TRACON
10:56AM 28.5333 -81.4667 139° Southeast 132 152 2,000 -300 Level Orlando TRACON
10:57AM 28.5167 -81.4333 120° Southeast 130 150 1,500 -540 Descending Orlando TRACON
10:58AM 28.5167 -81.3833 90° East 136 157 1,000 -480 Descending Orlando TRACON
10:59AM 28.5333 -81.3667 41° Northeast 100 115 500 -540 Descending Orlando TRACON
11:01AM 28.5455 -81.3329 124° Southeast  Level Estimated
11:08AM 28.5455 -81.3329 124° Southeast  Level Estimated
11:09AM 28.5455 -81.3329 124° Southeast  Level Estimated
11:10AM 28.5455 -81.3329 124° Southeast  Level Estimated